• Join FlightAware (Why Join?)
  • Login
  • US Flag 
01:20PM EDT


 

Airport Tracker/Info


-or-


 

Live Flight TrackerFlight Track Log ✈ UAL4843 ✈ 12-Apr-2013 ✈ KEWR - KBWI

Flight Track Log - Related Links

Times and Time Zones

All times are in EDT time to prevent confusion due to time zone crossing. See the UAL4843 flight status page for this flight to view local times or setup timezone preferences in your user account.

Time Position Orientation Groundspeed Altitude Reporting Facility
EDT Latitude Longitude Course Direction KTS MPH feet Rate Location/Type
01:51PM 40.3405 -74.7666 232° Southwest  Level Estimated
01:52PM 40.3111 -74.8162 232° Southwest  Level Estimated
01:53PM 40.2816 -74.8657 232° Southwest  Level Estimated
01:54PM 40.2521 -74.9151 232° Southwest  Level Estimated
01:55PM 40.2225 -74.9645 232° Southwest  Level Estimated
01:56PM 40.1930 -75.0139 232° Southwest  Level Estimated
01:57PM 40.1634 -75.0632 232° Southwest  Level Estimated
01:58PM 40.1338 -75.1125 232° Southwest  Level Estimated
01:59PM 40.1042 -75.1618 232° Southwest  Level Estimated
02:00PM 40.0746 -75.2110 232° Southwest  Level Estimated
02:01PM 40.0449 -75.2601 232° Southwest  Level Estimated
02:02PM 40.0152 -75.3093 232° Southwest  Level Estimated
02:03PM 39.9855 -75.3583 232° Southwest  Level Estimated
02:04PM 39.9558 -75.4074 232° Southwest  Level Estimated
02:05PM 39.9260 -75.4564 232° Southwest  Level Estimated
02:06PM 39.8963 -75.5053 232° Southwest  Level Estimated
02:07PM 39.8665 -75.5542 232° Southwest  Level Estimated
02:08PM 39.8367 -75.6031 232° Southwest  Level Estimated
02:09PM 39.8069 -75.6519 232° Southwest  Level Estimated
02:10PM 39.7771 -75.7007 231° Southwest  Level Estimated